sensor_id;sensor_type;location;lat;lon;timestamp;pressure;altitude;pressure_sealevel;temperature
15845;BMP180;50807;52.436;13.346;2023-02-12T00:00:11;102835.00;;;12.70
15845;BMP180;50807;52.436;13.346;2023-02-12T00:00:45;102831.00;;;12.70
15845;BMP180;50807;52.436;13.346;2023-02-12T00:01:17;102838.00;;;12.70
15845;BMP180;50807;52.436;13.346;2023-02-12T00:01:48;102837.00;;;12.70
15845;BMP180;50807;52.436;13.346;2023-02-12T00:02:20;102839.00;;;12.70
15845;BMP180;50807;52.436;13.346;2023-02-12T00:02:50;102829.00;;;12.70
15845;BMP180;50807;52.436;13.346;2023-02-12T00:03:21;102839.00;;;12.70
15845;BMP180;50807;52.436;13.346;2023-02-12T00:03:53;102835.00;;;12.70
15845;BMP180;50807;52.436;13.346;2023-02-12T00:04:24;102833.00;;;12.70
15845;BMP180;50807;52.436;13.346;2023-02-12T00:04:55;102837.00;;;12.70
15845;BMP180;50807;52.436;13.346;2023-02-12T00:05:26;102836.00;;;12.70
15845;BMP180;50807;52.436;13.346;2023-02-12T00:06:00;102845.00;;;12.60
15845;BMP180;50807;52.436;13.346;2023-02-12T00:06:31;102843.00;;;12.70
15845;BMP180;50807;52.436;13.346;2023-02-12T00:07:02;102839.00;;;12.70
15845;BMP180;50807;52.436;13.346;2023-02-12T00:07:34;102836.00;;;12.70
15845;BMP180;50807;52.436;13.346;2023-02-12T00:08:05;102838.00;;;12.70
15845;BMP180;50807;52.436;13.346;2023-02-12T00:08:36;102836.00;;;12.70
15845;BMP180;50807;52.436;13.346;2023-02-12T00:09:08;102843.00;;;12.70
15845;BMP180;50807;52.436;13.346;2023-02-12T00:09:39;102845.00;;;12.70
15845;BMP180;50807;52.436;13.346;2023-02-12T00:10:10;102841.00;;;12.70
15845;BMP180;50807;52.436;13.346;2023-02-12T00:10:43;102838.00;;;12.60
15845;BMP180;50807;52.436;13.346;2023-02-12T00:11:17;102844.00;;;12.60
15845;BMP180;50807;52.436;13.346;2023-02-12T00:11:48;102843.00;;;12.60
15845;BMP180;50807;52.436;13.346;2023-02-12T00:12:20;102851.00;;;12.70
15845;BMP180;50807;52.436;13.346;2023-02-12T00:12:53;102843.00;;;12.60
15845;BMP180;50807;52.436;13.346;2023-02-12T00:13:25;102846.00;;;12.60
15845;BMP180;50807;52.436;13.346;2023-02-12T00:13:57;102846.00;;;12.60
15845;BMP180;50807;52.436;13.346;2023-02-12T00:14:29;102846.00;;;12.60
15845;BMP180;50807;52.436;13.346;2023-02-12T00:15:00;102848.00;;;12.60
15845;BMP180;50807;52.436;13.346;2023-02-12T00:15:31;102845.00;;;12.60
15845;BMP180;50807;52.436;13.346;2023-02-12T00:16:05;102857.00;;;12.60
15845;BMP180;50807;52.436;13.346;2023-02-12T00:16:37;102849.00;;;12.60
15845;BMP180;50807;52.436;13.346;2023-02-12T00:17:07;102846.00;;;12.70
15845;BMP180;50807;52.436;13.346;2023-02-12T00:17:38;102851.00;;;12.60
15845;BMP180;50807;52.436;13.346;2023-02-12T00:18:10;102855.00;;;12.70
15845;BMP180;50807;52.436;13.346;2023-02-12T00:18:41;102852.00;;;12.70
15845;BMP180;50807;52.436;13.346;2023-02-12T00:19:12;102854.00;;;12.70
15845;BMP180;50807;52.436;13.346;2023-02-12T00:19:46;102856.00;;;12.60
15845;BMP180;50807;52.436;13.346;2023-02-12T00:20:17;102845.00;;;12.60
15845;BMP180;50807;52.436;13.346;2023-02-12T00:20:48;102854.00;;;12.70
15845;BMP180;50807;52.436;13.346;2023-02-12T00:21:21;102855.00;;;12.60
15845;BMP180;50807;52.436;13.346;2023-02-12T00:21:52;102852.00;;;12.60
15845;BMP180;50807;52.436;13.346;2023-02-12T00:22:23;102848.00;;;12.60
15845;BMP180;50807;52.436;13.346;2023-02-12T00:22:54;102849.00;;;12.60
15845;BMP180;50807;52.436;13.346;2023-02-12T00:23:25;102859.00;;;12.60
15845;BMP180;50807;52.436;13.346;2023-02-12T00:23:56;102863.00;;;12.70
15845;BMP180;50807;52.436;13.346;2023-02-12T00:24:28;102858.00;;;12.60
15845;BMP180;50807;52.436;13.346;2023-02-12T00:24:59;102864.00;;;12.70
15845;BMP180;50807;52.436;13.346;2023-02-12T00:25:30;102859.00;;;12.60
15845;BMP180;50807;52.436;13.346;2023-02-12T00:26:05;102865.00;;;12.60
15845;BMP180;50807;52.436;13.346;2023-02-12T00:26:38;102867.00;;;12.60
15845;BMP180;50807;52.436;13.346;2023-02-12T00:27:09;102866.00;;;12.70
15845;BMP180;50807;52.436;13.346;2023-02-12T00:27:40;102868.00;;;12.60
15845;BMP180;50807;52.436;13.346;2023-02-12T00:28:13;102858.00;;;12.60
15845;BMP180;50807;52.436;13.346;2023-02-12T00:28:45;102852.00;;;12.60
15845;BMP180;50807;52.436;13.346;2023-02-12T00:29:16;102861.00;;;12.70
15845;BMP180;50807;52.436;13.346;2023-02-12T00:29:48;102862.00;;;12.60
15845;BMP180;50807;52.436;13.346;2023-02-12T00:30:19;102863.00;;;12.60
15845;BMP180;50807;52.436;13.346;2023-02-12T00:30:49;102864.00;;;12.70
15845;BMP180;50807;52.436;13.346;2023-02-12T00:31:23;102858.00;;;12.70
15845;BMP180;50807;52.436;13.346;2023-02-12T00:31:55;102862.00;;;12.60
15845;BMP180;50807;52.436;13.346;2023-02-12T00:32:25;102859.00;;;12.60
15845;BMP180;50807;52.436;13.346;2023-02-12T00:32:57;102859.00;;;12.60
15845;BMP180;50807;52.436;13.346;2023-02-12T00:33:28;102860.00;;;12.60
15845;BMP180;50807;52.436;13.346;2023-02-12T00:33:59;102865.00;;;12.60
15845;BMP180;50807;52.436;13.346;2023-02-12T00:34:31;102862.00;;;12.60
15845;BMP180;50807;52.436;13.346;2023-02-12T00:35:03;102859.00;;;12.60
15845;BMP180;50807;52.436;13.346;2023-02-12T00:35:34;102867.00;;;12.70
15845;BMP180;50807;52.436;13.346;2023-02-12T00:36:07;102857.00;;;12.60
15845;BMP180;50807;52.436;13.346;2023-02-12T00:36:38;102860.00;;;12.70
15845;BMP180;50807;52.436;13.346;2023-02-12T00:37:09;102861.00;;;12.60
15845;BMP180;50807;52.436;13.346;2023-02-12T00:37:41;102865.00;;;12.60
15845;BMP180;50807;52.436;13.346;2023-02-12T00:38:12;102861.00;;;12.70
15845;BMP180;50807;52.436;13.346;2023-02-12T00:38:43;102863.00;;;12.70
15845;BMP180;50807;52.436;13.346;2023-02-12T00:39:15;102868.00;;;12.60
15845;BMP180;50807;52.436;13.346;2023-02-12T00:39:46;102859.00;;;12.60
15845;BMP180;50807;52.436;13.346;2023-02-12T00:40:17;102859.00;;;12.60
15845;BMP180;50807;52.436;13.346;2023-02-12T00:40:48;102861.00;;;12.60
15845;BMP180;50807;52.436;13.346;2023-02-12T00:41:21;102861.00;;;12.60
15845;BMP180;50807;52.436;13.346;2023-02-12T00:41:51;102863.00;;;12.60
15845;BMP180;50807;52.436;13.346;2023-02-12T00:42:22;102864.00;;;12.70
15845;BMP180;50807;52.436;13.346;2023-02-12T00:42:54;102868.00;;;12.60
15845;BMP180;50807;52.436;13.346;2023-02-12T00:43:25;102863.00;;;12.70
15845;BMP180;50807;52.436;13.346;2023-02-12T00:43:57;102864.00;;;12.60
15845;BMP180;50807;52.436;13.346;2023-02-12T00:44:29;102861.00;;;12.60
15845;BMP180;50807;52.436;13.346;2023-02-12T00:45:00;102863.00;;;12.60
15845;BMP180;50807;52.436;13.346;2023-02-12T00:45:31;102870.00;;;12.60
15845;BMP180;50807;52.436;13.346;2023-02-12T00:46:02;102860.00;;;12.60
15845;BMP180;50807;52.436;13.346;2023-02-12T00:46:36;102863.00;;;12.60
15845;BMP180;50807;52.436;13.346;2023-02-12T00:47:08;102868.00;;;12.60
15845;BMP180;50807;52.436;13.346;2023-02-12T00:47:39;102864.00;;;12.60
15845;BMP180;50807;52.436;13.346;2023-02-12T00:48:12;102866.00;;;12.60
15845;BMP180;50807;52.436;13.346;2023-02-12T00:48:43;102866.00;;;12.60
15845;BMP180;50807;52.436;13.346;2023-02-12T00:49:14;102862.00;;;12.60
15845;BMP180;50807;52.436;13.346;2023-02-12T00:49:45;102864.00;;;12.70
15845;BMP180;50807;52.436;13.346;2023-02-12T00:50:16;102867.00;;;12.70
15845;BMP180;50807;52.436;13.346;2023-02-12T00:50:49;102868.00;;;12.60
15845;BMP180;50807;52.436;13.346;2023-02-12T00:51:21;102866.00;;;12.60
15845;BMP180;50807;52.436;13.346;2023-02-12T00:51:51;102870.00;;;12.60
15845;BMP180;50807;52.436;13.346;2023-02-12T00:52:22;102866.00;;;12.60
15845;BMP180;50807;52.436;13.346;2023-02-12T00:52:54;102873.00;;;12.60
15845;BMP180;50807;52.436;13.346;2023-02-12T00:53:25;102871.00;;;12.70
15845;BMP180;50807;52.436;13.346;2023-02-12T00:53:56;102868.00;;;12.60
15845;BMP180;50807;52.436;13.346;2023-02-12T00:54:29;102885.00;;;12.60
15845;BMP180;50807;52.436;13.346;2023-02-12T00:55:00;102871.00;;;12.60
15845;BMP180;50807;52.436;13.346;2023-02-12T00:55:30;102882.00;;;12.60
15845;BMP180;50807;52.436;13.346;2023-02-12T00:56:03;102876.00;;;12.60
15845;BMP180;50807;52.436;13.346;2023-02-12T00:56:34;102880.00;;;12.60
15845;BMP180;50807;52.436;13.346;2023-02-12T00:57:05;102880.00;;;12.60
15845;BMP180;50807;52.436;13.346;2023-02-12T00:57:37;102884.00;;;12.60
15845;BMP180;50807;52.436;13.346;2023-02-12T00:58:08;102884.00;;;12.60
15845;BMP180;50807;52.436;13.346;2023-02-12T00:58:39;102887.00;;;12.60
15845;BMP180;50807;52.436;13.346;2023-02-12T00:59:12;102887.00;;;12.60
15845;BMP180;50807;52.436;13.346;2023-02-12T00:59:43;102888.00;;;12.60
15845;BMP180;50807;52.436;13.346;2023-02-12T01:00:15;102883.00;;;12.60
15845;BMP180;50807;52.436;13.346;2023-02-12T01:00:47;102883.00;;;12.60
15845;BMP180;50807;52.436;13.346;2023-02-12T01:01:18;102880.00;;;12.60
15845;BMP180;50807;52.436;13.346;2023-02-12T01:01:49;102881.00;;;12.60
15845;BMP180;50807;52.436;13.346;2023-02-12T01:02:21;102880.00;;;12.60
15845;BMP180;50807;52.436;13.346;2023-02-12T01:02:52;102881.00;;;12.60
15845;BMP180;50807;52.436;13.346;2023-02-12T01:03:23;102874.00;;;12.60
15845;BMP180;50807;52.436;13.346;2023-02-12T01:03:54;102882.00;;;12.60
15845;BMP180;50807;52.436;13.346;2023-02-12T01:04:26;102879.00;;;12.60
15845;BMP180;50807;52.436;13.346;2023-02-12T01:04:57;102884.00;;;12.60
15845;BMP180;50807;52.436;13.346;2023-02-12T01:05:28;102881.00;;;12.60
15845;BMP180;50807;52.436;13.346;2023-02-12T01:05:58;102875.00;;;12.60
15845;BMP180;50807;52.436;13.346;2023-02-12T01:06:30;102895.00;;;12.60
15845;BMP180;50807;52.436;13.346;2023-02-12T01:07:01;102889.00;;;12.60
15845;BMP180;50807;52.436;13.346;2023-02-12T01:07:32;102897.00;;;12.60
15845;BMP180;50807;52.436;13.346;2023-02-12T01:08:04;102879.00;;;12.60
15845;BMP180;50807;52.436;13.346;2023-02-12T01:08:35;102887.00;;;12.60
15845;BMP180;50807;52.436;13.346;2023-02-12T01:09:06;102889.00;;;12.60
15845;BMP180;50807;52.436;13.346;2023-02-12T01:09:38;102895.00;;;12.60
15845;BMP180;50807;52.436;13.346;2023-02-12T01:10:09;102900.00;;;12.60
15845;BMP180;50807;52.436;13.346;2023-02-12T01:10:42;102891.00;;;12.60
15845;BMP180;50807;52.436;13.346;2023-02-12T01:11:14;102895.00;;;12.50
15845;BMP180;50807;52.436;13.346;2023-02-12T01:11:44;102904.00;;;12.60
15845;BMP180;50807;52.436;13.346;2023-02-12T01:12:15;102900.00;;;12.60
15845;BMP180;50807;52.436;13.346;2023-02-12T01:12:47;102901.00;;;12.60
15845;BMP180;50807;52.436;13.346;2023-02-12T01:13:18;102897.00;;;12.60
15845;BMP180;50807;52.436;13.346;2023-02-12T01:13:49;102904.00;;;12.60
15845;BMP180;50807;52.436;13.346;2023-02-12T01:14:21;102895.00;;;12.60
15845;BMP180;50807;52.436;13.346;2023-02-12T01:14:53;102901.00;;;12.60
15845;BMP180;50807;52.436;13.346;2023-02-12T01:15:24;102896.00;;;12.60
15845;BMP180;50807;52.436;13.346;2023-02-12T01:16:03;102898.00;;;12.50
15845;BMP180;50807;52.436;13.346;2023-02-12T01:16:36;102897.00;;;12.50
15845;BMP180;50807;52.436;13.346;2023-02-12T01:17:07;102890.00;;;12.60
15845;BMP180;50807;52.436;13.346;2023-02-12T01:17:38;102890.00;;;12.60
15845;BMP180;50807;52.436;13.346;2023-02-12T01:18:10;102901.00;;;12.60
15845;BMP180;50807;52.436;13.346;2023-02-12T01:18:42;102896.00;;;12.60
15845;BMP180;50807;52.436;13.346;2023-02-12T01:19:14;102891.00;;;12.60
15845;BMP180;50807;52.436;13.346;2023-02-12T01:19:44;102902.00;;;12.60
15845;BMP180;50807;52.436;13.346;2023-02-12T01:20:17;102899.00;;;12.60
15845;BMP180;50807;52.436;13.346;2023-02-12T01:20:48;102904.00;;;12.60
15845;BMP180;50807;52.436;13.346;2023-02-12T01:21:22;102899.00;;;12.50
15845;BMP180;50807;52.436;13.346;2023-02-12T01:21:54;102900.00;;;12.50
15845;BMP180;50807;52.436;13.346;2023-02-12T01:22:25;102897.00;;;12.60
15845;BMP180;50807;52.436;13.346;2023-02-12T01:22:56;102902.00;;;12.60
15845;BMP180;50807;52.436;13.346;2023-02-12T01:23:28;102900.00;;;12.60
15845;BMP180;50807;52.436;13.346;2023-02-12T01:23:59;102904.00;;;12.60
15845;BMP180;50807;52.436;13.346;2023-02-12T01:24:30;102899.00;;;12.60
15845;BMP180;50807;52.436;13.346;2023-02-12T01:25:02;102901.00;;;12.60
15845;BMP180;50807;52.436;13.346;2023-02-12T01:25:33;102905.00;;;12.60
15845;BMP180;50807;52.436;13.346;2023-02-12T01:26:04;102900.00;;;12.60
15845;BMP180;50807;52.436;13.346;2023-02-12T01:26:36;102900.00;;;12.60
15845;BMP180;50807;52.436;13.346;2023-02-12T01:27:07;102900.00;;;12.60
15845;BMP180;50807;52.436;13.346;2023-02-12T01:27:39;102901.00;;;12.60
15845;BMP180;50807;52.436;13.346;2023-02-12T01:28:10;102899.00;;;12.60
15845;BMP180;50807;52.436;13.346;2023-02-12T01:28:47;102903.00;;;12.50
15845;BMP180;50807;52.436;13.346;2023-02-12T01:29:18;102906.00;;;12.60
15845;BMP180;50807;52.436;13.346;2023-02-12T01:29:51;102904.00;;;12.50
15845;BMP180;50807;52.436;13.346;2023-02-12T01:30:22;102904.00;;;12.50
15845;BMP180;50807;52.436;13.346;2023-02-12T01:30:53;102900.00;;;12.60
15845;BMP180;50807;52.436;13.346;2023-02-12T01:31:28;102906.00;;;12.50
15845;BMP180;50807;52.436;13.346;2023-02-12T01:32:00;102900.00;;;12.60
15845;BMP180;50807;52.436;13.346;2023-02-12T01:32:32;102898.00;;;12.50
15845;BMP180;50807;52.436;13.346;2023-02-12T01:33:03;102901.00;;;12.50
15845;BMP180;50807;52.436;13.346;2023-02-12T01:33:34;102902.00;;;12.50
15845;BMP180;50807;52.436;13.346;2023-02-12T01:34:06;102904.00;;;12.50
15845;BMP180;50807;52.436;13.346;2023-02-12T01:34:37;102907.00;;;12.50
15845;BMP180;50807;52.436;13.346;2023-02-12T01:35:08;102909.00;;;12.50
15845;BMP180;50807;52.436;13.346;2023-02-12T01:35:40;102912.00;;;12.50
15845;BMP180;50807;52.436;13.346;2023-02-12T01:36:11;102916.00;;;12.50
15845;BMP180;50807;52.436;13.346;2023-02-12T01:36:42;102904.00;;;12.50
15845;BMP180;50807;52.436;13.346;2023-02-12T01:37:15;102911.00;;;12.50
15845;BMP180;50807;52.436;13.346;2023-02-12T01:37:46;102904.00;;;12.60
15845;BMP180;50807;52.436;13.346;2023-02-12T01:38:17;102905.00;;;12.50
15845;BMP180;50807;52.436;13.346;2023-02-12T01:38:49;102904.00;;;12.50
15845;BMP180;50807;52.436;13.346;2023-02-12T01:39:20;102910.00;;;12.50
15845;BMP180;50807;52.436;13.346;2023-02-12T01:39:51;102912.00;;;12.50
15845;BMP180;50807;52.436;13.346;2023-02-12T01:40:23;102908.00;;;12.50
15845;BMP180;50807;52.436;13.346;2023-02-12T01:41:02;102912.00;;;12.40
15845;BMP180;50807;52.436;13.346;2023-02-12T01:41:35;102905.00;;;12.50
15845;BMP180;50807;52.436;13.346;2023-02-12T01:42:09;102912.00;;;12.50
15845;BMP180;50807;52.436;13.346;2023-02-12T01:42:42;102908.00;;;12.50
15845;BMP180;50807;52.436;13.346;2023-02-12T01:43:13;102910.00;;;12.50
15845;BMP180;50807;52.436;13.346;2023-02-12T01:43:45;102907.00;;;12.50
15845;BMP180;50807;52.436;13.346;2023-02-12T01:44:20;102915.00;;;12.50
15845;BMP180;50807;52.436;13.346;2023-02-12T01:45:44;102918.00;;;12.20
15845;BMP180;50807;52.436;13.346;2023-02-12T01:46:17;102905.00;;;12.30
15845;BMP180;50807;52.436;13.346;2023-02-12T01:46:49;102906.00;;;12.30
15845;BMP180;50807;52.436;13.346;2023-02-12T01:47:25;102918.00;;;12.40
15845;BMP180;50807;52.436;13.346;2023-02-12T01:47:59;102914.00;;;12.30
15845;BMP180;50807;52.436;13.346;2023-02-12T01:48:36;102917.00;;;12.40
15845;BMP180;50807;52.436;13.346;2023-02-12T01:49:18;102914.00;;;12.30
15845;BMP180;50807;52.436;13.346;2023-02-12T01:49:50;102917.00;;;12.40
15845;BMP180;50807;52.436;13.346;2023-02-12T01:50:20;102912.00;;;12.40
15845;BMP180;50807;52.436;13.346;2023-02-12T01:50:53;102923.00;;;12.40
15845;BMP180;50807;52.436;13.346;2023-02-12T01:51:27;102912.00;;;12.40
15845;BMP180;50807;52.436;13.346;2023-02-12T01:52:04;102918.00;;;12.40
15845;BMP180;50807;52.436;13.346;2023-02-12T01:52:39;102923.00;;;12.40
15845;BMP180;50807;52.436;13.346;2023-02-12T01:53:12;102921.00;;;12.40
15845;BMP180;50807;52.436;13.346;2023-02-12T01:53:53;102923.00;;;12.40
15845;BMP180;50807;52.436;13.346;2023-02-12T01:54:27;102923.00;;;12.40
15845;BMP180;50807;52.436;13.346;2023-02-12T01:55:02;102921.00;;;12.40
15845;BMP180;50807;52.436;13.346;2023-02-12T01:55:35;102917.00;;;12.40
15845;BMP180;50807;52.436;13.346;2023-02-12T01:56:08;102918.00;;;12.40
15845;BMP180;50807;52.436;13.346;2023-02-12T01:56:39;102927.00;;;12.40
15845;BMP180;50807;52.436;13.346;2023-02-12T01:57:12;102917.00;;;12.40
15845;BMP180;50807;52.436;13.346;2023-02-12T01:57:46;102928.00;;;12.40
15845;BMP180;50807;52.436;13.346;2023-02-12T01:58:18;102924.00;;;12.50
15845;BMP180;50807;52.436;13.346;2023-02-12T01:58:52;102921.00;;;12.40
15845;BMP180;50807;52.436;13.346;2023-02-12T01:59:25;102926.00;;;12.40
15845;BMP180;50807;52.436;13.346;2023-02-12T01:59:59;102916.00;;;12.40
15845;BMP180;50807;52.436;13.346;2023-02-12T02:00:33;102920.00;;;12.50
15845;BMP180;50807;52.436;13.346;2023-02-12T02:01:07;102917.00;;;12.40
15845;BMP180;50807;52.436;13.346;2023-02-12T02:01:39;102920.00;;;12.50
15845;BMP180;50807;52.436;13.346;2023-02-12T02:02:11;102919.00;;;12.50
15845;BMP180;50807;52.436;13.346;2023-02-12T02:02:47;102920.00;;;12.40
15845;BMP180;50807;52.436;13.346;2023-02-12T02:03:19;102927.00;;;12.50
15845;BMP180;50807;52.436;13.346;2023-02-12T02:03:54;102928.00;;;12.40
15845;BMP180;50807;52.436;13.346;2023-02-12T02:04:32;102927.00;;;12.40
15845;BMP180;50807;52.436;13.346;2023-02-12T02:05:07;102930.00;;;12.50
15845;BMP180;50807;52.436;13.346;2023-02-12T02:05:46;102930.00;;;12.40
15845;BMP180;50807;52.436;13.346;2023-02-12T02:06:25;102931.00;;;12.40
15845;BMP180;50807;52.436;13.346;2023-02-12T02:07:01;102927.00;;;12.40
15845;BMP180;50807;52.436;13.346;2023-02-12T02:07:33;102920.00;;;12.40
15845;BMP180;50807;52.436;13.346;2023-02-12T02:08:04;102926.00;;;12.40
15845;BMP180;50807;52.436;13.346;2023-02-12T02:08:37;102927.00;;;12.40
15845;BMP180;50807;52.436;13.346;2023-02-12T02:09:09;102928.00;;;12.50
15845;BMP180;50807;52.436;13.346;2023-02-12T02:09:42;102923.00;;;12.50
15845;BMP180;50807;52.436;13.346;2023-02-12T02:10:13;102931.00;;;12.50
15845;BMP180;50807;52.436;13.346;2023-02-12T02:10:44;102928.00;;;12.50
15845;BMP180;50807;52.436;13.346;2023-02-12T02:11:14;102924.00;;;12.50
15845;BMP180;50807;52.436;13.346;2023-02-12T02:12:05;102930.00;;;12.40
15845;BMP180;50807;52.436;13.346;2023-02-12T02:12:55;102937.00;;;12.40
15845;BMP180;50807;52.436;13.346;2023-02-12T02:13:44;102928.00;;;12.30
15845;BMP180;50807;52.436;13.346;2023-02-12T02:14:35;102924.00;;;12.30
15845;BMP180;50807;52.436;13.346;2023-02-12T02:15:08;102931.00;;;12.30
15845;BMP180;50807;52.436;13.346;2023-02-12T02:15:46;102926.00;;;12.30
15845;BMP180;50807;52.436;13.346;2023-02-12T02:16:24;102925.00;;;12.30
15845;BMP180;50807;52.436;13.346;2023-02-12T02:17:10;102929.00;;;12.30
15845;BMP180;50807;52.436;13.346;2023-02-12T02:17:51;102932.00;;;12.30
15845;BMP180;50807;52.436;13.346;2023-02-12T02:18:31;102926.00;;;12.30
15845;BMP180;50807;52.436;13.346;2023-02-12T02:19:22;102930.00;;;12.20
15845;BMP180;50807;52.436;13.346;2023-02-12T02:20:47;102937.00;;;12.10
15845;BMP180;50807;52.436;13.346;2023-02-12T02:21:56;102928.00;;;12.10
15845;BMP180;50807;52.436;13.346;2023-02-12T02:22:36;102929.00;;;12.10
15845;BMP180;50807;52.436;13.346;2023-02-12T02:23:47;102924.00;;;12.10
15845;BMP180;50807;52.436;13.346;2023-02-12T02:24:51;102930.00;;;12.10
15845;BMP180;50807;52.436;13.346;2023-02-12T02:25:53;102927.00;;;12.00
15845;BMP180;50807;52.436;13.346;2023-02-12T02:26:59;102927.00;;;12.00
15845;BMP180;50807;52.436;13.346;2023-02-12T02:27:44;102928.00;;;12.10
15845;BMP180;50807;52.436;13.346;2023-02-12T02:29:10;102923.00;;;12.00
15845;BMP180;50807;52.436;13.346;2023-02-12T02:30:13;102932.00;;;12.00
15845;BMP180;50807;52.436;13.346;2023-02-12T02:30:55;102928.00;;;12.00
15845;BMP180;50807;52.436;13.346;2023-02-12T02:31:36;102925.00;;;12.10
15845;BMP180;50807;52.436;13.346;2023-02-12T02:32:16;102919.00;;;12.10
15845;BMP180;50807;52.436;13.346;2023-02-12T02:32:56;102927.00;;;12.10
15845;BMP180;50807;52.436;13.346;2023-02-12T02:33:40;102927.00;;;12.10
15845;BMP180;50807;52.436;13.346;2023-02-12T02:34:20;102925.00;;;12.10
15845;BMP180;50807;52.436;13.346;2023-02-12T02:35:03;102923.00;;;12.10
15845;BMP180;50807;52.436;13.346;2023-02-12T02:35:46;102933.00;;;12.10
15845;BMP180;50807;52.436;13.346;2023-02-12T02:36:33;102926.00;;;12.10
15845;BMP180;50807;52.436;13.346;2023-02-12T02:37:15;102929.00;;;12.10
15845;BMP180;50807;52.436;13.346;2023-02-12T02:37:56;102921.00;;;12.10
15845;BMP180;50807;52.436;13.346;2023-02-12T02:38:39;102928.00;;;12.10
15845;BMP180;50807;52.436;13.346;2023-02-12T02:39:18;102933.00;;;12.20
15845;BMP180;50807;52.436;13.346;2023-02-12T02:39:59;102927.00;;;12.20
15845;BMP180;50807;52.436;13.346;2023-02-12T02:40:39;102929.00;;;12.20
15845;BMP180;50807;52.436;13.346;2023-02-12T02:41:27;102939.00;;;12.10
15845;BMP180;50807;52.436;13.346;2023-02-12T02:42:09;102932.00;;;12.20
15845;BMP180;50807;52.436;13.346;2023-02-12T02:42:46;102936.00;;;12.20
15845;BMP180;50807;52.436;13.346;2023-02-12T02:43:27;102926.00;;;12.20
15845;BMP180;50807;52.436;13.346;2023-02-12T02:44:05;102932.00;;;12.20
15845;BMP180;50807;52.436;13.346;2023-02-12T02:44:45;102937.00;;;12.20
15845;BMP180;50807;52.436;13.346;2023-02-12T02:45:26;102933.00;;;12.20
15845;BMP180;50807;52.436;13.346;2023-02-12T02:46:01;102934.00;;;12.20
15845;BMP180;50807;52.436;13.346;2023-02-12T02:46:43;102929.00;;;12.20
15845;BMP180;50807;52.436;13.346;2023-02-12T02:47:18;102931.00;;;12.30
15845;BMP180;50807;52.436;13.346;2023-02-12T02:47:56;102932.00;;;12.30
15845;BMP180;50807;52.436;13.346;2023-02-12T02:48:35;102931.00;;;12.30
15845;BMP180;50807;52.436;13.346;2023-02-12T02:49:13;102934.00;;;12.20
15845;BMP180;50807;52.436;13.346;2023-02-12T02:49:52;102936.00;;;12.30
15845;BMP180;50807;52.436;13.346;2023-02-12T02:50:27;102937.00;;;12.30
15845;BMP180;50807;52.436;13.346;2023-02-12T02:51:02;102939.00;;;12.30
15845;BMP180;50807;52.436;13.346;2023-02-12T02:51:40;102931.00;;;12.30
15845;BMP180;50807;52.436;13.346;2023-02-12T02:52:19;102932.00;;;12.30
15845;BMP180;50807;52.436;13.346;2023-02-12T02:52:58;102932.00;;;12.30
15845;BMP180;50807;52.436;13.346;2023-02-12T02:53:34;102936.00;;;12.30
15845;BMP180;50807;52.436;13.346;2023-02-12T02:54:11;102933.00;;;12.30
15845;BMP180;50807;52.436;13.346;2023-02-12T02:54:48;102938.00;;;12.30
15845;BMP180;50807;52.436;13.346;2023-02-12T02:55:24;102931.00;;;12.30
15845;BMP180;50807;52.436;13.346;2023-02-12T02:56:01;102937.00;;;12.30
15845;BMP180;50807;52.436;13.346;2023-02-12T02:56:38;102936.00;;;12.30
15845;BMP180;50807;52.436;13.346;2023-02-12T02:57:15;102939.00;;;12.30
15845;BMP180;50807;52.436;13.346;2023-02-12T02:57:52;102937.00;;;12.30
15845;BMP180;50807;52.436;13.346;2023-02-12T02:58:31;102940.00;;;12.30
15845;BMP180;50807;52.436;13.346;2023-02-12T02:59:06;102944.00;;;12.30
15845;BMP180;50807;52.436;13.346;2023-02-12T02:59:46;102938.00;;;12.30
15845;BMP180;50807;52.436;13.346;2023-02-12T03:00:26;102936.00;;;12.30
15845;BMP180;50807;52.436;13.346;2023-02-12T03:01:05;102945.00;;;12.30
15845;BMP180;50807;52.436;13.346;2023-02-12T03:01:44;102938.00;;;12.30
15845;BMP180;50807;52.436;13.346;2023-02-12T03:02:22;102946.00;;;12.30
15845;BMP180;50807;52.436;13.346;2023-02-12T03:03:01;102945.00;;;12.30
15845;BMP180;50807;52.436;13.346;2023-02-12T03:03:38;102947.00;;;12.30
15845;BMP180;50807;52.436;13.346;2023-02-12T03:04:16;102939.00;;;12.30
15845;BMP180;50807;52.436;13.346;2023-02-12T03:04:53;102940.00;;;12.30
15845;BMP180;50807;52.436;13.346;2023-02-12T03:05:29;102941.00;;;12.30
15845;BMP180;50807;52.436;13.346;2023-02-12T03:06:07;102943.00;;;12.30
15845;BMP180;50807;52.436;13.346;2023-02-12T03:06:45;102944.00;;;12.30
15845;BMP180;50807;52.436;13.346;2023-02-12T03:07:24;102949.00;;;12.30
15845;BMP180;50807;52.436;13.346;2023-02-12T03:08:02;102951.00;;;12.30
15845;BMP180;50807;52.436;13.346;2023-02-12T03:08:39;102951.00;;;12.30
15845;BMP180;50807;52.436;13.346;2023-02-12T03:09:19;102950.00;;;12.30
15845;BMP180;50807;52.436;13.346;2023-02-12T03:09:56;102954.00;;;12.30
15845;BMP180;50807;52.436;13.346;2023-02-12T03:10:35;102953.00;;;12.30
15845;BMP180;50807;52.436;13.346;2023-02-12T03:11:13;102954.00;;;12.30
15845;BMP180;50807;52.436;13.346;2023-02-12T03:11:46;102947.00;;;12.30
15845;BMP180;50807;52.436;13.346;2023-02-12T03:12:27;102951.00;;;12.30
15845;BMP180;50807;52.436;13.346;2023-02-12T03:13:06;102953.00;;;12.30
15845;BMP180;50807;52.436;13.346;2023-02-12T03:13:46;102960.00;;;12.30
15845;BMP180;50807;52.436;13.346;2023-02-12T03:14:24;102963.00;;;12.30
15845;BMP180;50807;52.436;13.346;2023-02-12T03:15:06;102959.00;;;12.30
15845;BMP180;50807;52.436;13.346;2023-02-12T03:15:45;102959.00;;;12.30
15845;BMP180;50807;52.436;13.346;2023-02-12T03:16:24;102959.00;;;12.30